sensor_id;sensor_type;location;lat;lon;timestamp;P1;durP1;ratioP1;P2;durP2;ratioP2
3036;SDS011;1528;52.550;13.408;2023-03-01T00:00:02;26.63;;;24.40;;
3036;SDS011;1528;52.550;13.408;2023-03-01T00:02:51;28.47;;;26.07;;
3036;SDS011;1528;52.550;13.408;2023-03-01T00:05:36;26.33;;;24.13;;
3036;SDS011;1528;52.550;13.408;2023-03-01T00:08:29;26.50;;;24.20;;
3036;SDS011;1528;52.550;13.408;2023-03-01T00:11:16;26.10;;;23.90;;
3036;SDS011;1528;52.550;13.408;2023-03-01T00:14:04;26.90;;;24.70;;
3036;SDS011;1528;52.550;13.408;2023-03-01T00:16:51;28.67;;;26.37;;
3036;SDS011;1528;52.550;13.408;2023-03-01T00:19:37;25.33;;;23.17;;
3036;SDS011;1528;52.550;13.408;2023-03-01T00:22:22;26.37;;;24.17;;
3036;SDS011;1528;52.550;13.408;2023-03-01T00:25:08;23.90;;;21.83;;
3036;SDS011;1528;52.550;13.408;2023-03-01T00:27:54;24.67;;;22.47;;
3036;SDS011;1528;52.550;13.408;2023-03-01T00:30:40;25.17;;;23.20;;
3036;SDS011;1528;52.550;13.408;2023-03-01T00:33:27;24.37;;;22.17;;
3036;SDS011;1528;52.550;13.408;2023-03-01T00:36:13;23.40;;;21.23;;
3036;SDS011;1528;52.550;13.408;2023-03-01T00:39:00;22.97;;;20.87;;
3036;SDS011;1528;52.550;13.408;2023-03-01T00:41:47;24.57;;;22.33;;
3036;SDS011;1528;52.550;13.408;2023-03-01T00:44:33;24.70;;;22.53;;
3036;SDS011;1528;52.550;13.408;2023-03-01T00:47:19;26.70;;;24.50;;
3036;SDS011;1528;52.550;13.408;2023-03-01T00:50:06;27.70;;;25.47;;
3036;SDS011;1528;52.550;13.408;2023-03-01T00:52:54;27.83;;;25.43;;
3036;SDS011;1528;52.550;13.408;2023-03-01T00:55:40;30.03;;;27.47;;
3036;SDS011;1528;52.550;13.408;2023-03-01T00:58:26;34.83;;;31.57;;
3036;SDS011;1528;52.550;13.408;2023-03-01T01:01:12;38.80;;;34.97;;
3036;SDS011;1528;52.550;13.408;2023-03-01T01:04:02;42.63;;;38.80;;
3036;SDS011;1528;52.550;13.408;2023-03-01T01:06:51;40.70;;;36.40;;
3036;SDS011;1528;52.550;13.408;2023-03-01T01:09:37;37.90;;;34.57;;
3036;SDS011;1528;52.550;13.408;2023-03-01T01:12:33;34.47;;;31.33;;
3036;SDS011;1528;52.550;13.408;2023-03-01T01:15:18;33.43;;;30.40;;
3036;SDS011;1528;52.550;13.408;2023-03-01T01:18:05;34.03;;;31.00;;
3036;SDS011;1528;52.550;13.408;2023-03-01T01:20:51;34.43;;;31.10;;
3036;SDS011;1528;52.550;13.408;2023-03-01T01:23:38;33.77;;;30.70;;
3036;SDS011;1528;52.550;13.408;2023-03-01T01:26:25;34.60;;;31.43;;
3036;SDS011;1528;52.550;13.408;2023-03-01T01:29:12;34.07;;;31.03;;
3036;SDS011;1528;52.550;13.408;2023-03-01T01:31:59;33.60;;;30.60;;
3036;SDS011;1528;52.550;13.408;2023-03-01T01:34:44;31.83;;;29.03;;
3036;SDS011;1528;52.550;13.408;2023-03-01T01:37:30;31.37;;;28.50;;
3036;SDS011;1528;52.550;13.408;2023-03-01T01:40:17;32.30;;;29.53;;
3036;SDS011;1528;52.550;13.408;2023-03-01T01:43:04;33.83;;;30.80;;
3036;SDS011;1528;52.550;13.408;2023-03-01T01:45:53;30.23;;;27.80;;
3036;SDS011;1528;52.550;13.408;2023-03-01T01:48:42;30.50;;;27.90;;
3036;SDS011;1528;52.550;13.408;2023-03-01T01:51:35;33.07;;;30.03;;
3036;SDS011;1528;52.550;13.408;2023-03-01T01:54:26;33.30;;;30.63;;
3036;SDS011;1528;52.550;13.408;2023-03-01T01:57:18;29.43;;;27.03;;
3036;SDS011;1528;52.550;13.408;2023-03-01T02:00:07;29.00;;;26.47;;
3036;SDS011;1528;52.550;13.408;2023-03-01T02:02:56;30.30;;;27.70;;
3036;SDS011;1528;52.550;13.408;2023-03-01T02:05:46;28.70;;;26.30;;
3036;SDS011;1528;52.550;13.408;2023-03-01T02:08:36;28.40;;;25.80;;
3036;SDS011;1528;52.550;13.408;2023-03-01T02:11:26;28.80;;;26.07;;
3036;SDS011;1528;52.550;13.408;2023-03-01T02:14:15;29.13;;;26.40;;
3036;SDS011;1528;52.550;13.408;2023-03-01T02:17:01;28.67;;;26.17;;
3036;SDS011;1528;52.550;13.408;2023-03-01T02:19:50;28.10;;;25.57;;
3036;SDS011;1528;52.550;13.408;2023-03-01T02:22:46;28.10;;;25.90;;
3036;SDS011;1528;52.550;13.408;2023-03-01T02:25:35;28.80;;;26.27;;
3036;SDS011;1528;52.550;13.408;2023-03-01T02:28:30;25.93;;;23.93;;
3036;SDS011;1528;52.550;13.408;2023-03-01T02:31:17;28.57;;;26.27;;
3036;SDS011;1528;52.550;13.408;2023-03-01T02:34:23;26.20;;;23.80;;
3036;SDS011;1528;52.550;13.408;2023-03-01T02:37:11;26.20;;;23.93;;
3036;SDS011;1528;52.550;13.408;2023-03-01T02:40:06;26.80;;;24.40;;
3036;SDS011;1528;52.550;13.408;2023-03-01T02:42:57;24.90;;;22.80;;
3036;SDS011;1528;52.550;13.408;2023-03-01T02:45:49;24.60;;;22.67;;
3036;SDS011;1528;52.550;13.408;2023-03-01T02:48:40;24.50;;;22.40;;
3036;SDS011;1528;52.550;13.408;2023-03-01T02:51:31;28.20;;;25.57;;
3036;SDS011;1528;52.550;13.408;2023-03-01T02:54:28;24.97;;;22.97;;
3036;SDS011;1528;52.550;13.408;2023-03-01T02:57:16;24.63;;;22.60;;
3036;SDS011;1528;52.550;13.408;2023-03-01T03:00:05;23.90;;;22.00;;
3036;SDS011;1528;52.550;13.408;2023-03-01T03:02:54;27.20;;;24.90;;
3036;SDS011;1528;52.550;13.408;2023-03-01T03:05:41;23.00;;;21.27;;
3036;SDS011;1528;52.550;13.408;2023-03-01T03:08:27;26.70;;;24.70;;
3036;SDS011;1528;52.550;13.408;2023-03-01T03:11:13;22.87;;;20.80;;
3036;SDS011;1528;52.550;13.408;2023-03-01T03:13:59;24.10;;;22.07;;
3036;SDS011;1528;52.550;13.408;2023-03-01T03:16:45;25.77;;;23.60;;
3036;SDS011;1528;52.550;13.408;2023-03-01T03:19:34;26.50;;;24.10;;
3036;SDS011;1528;52.550;13.408;2023-03-01T03:22:19;24.80;;;23.10;;
3036;SDS011;1528;52.550;13.408;2023-03-01T03:25:05;25.40;;;23.30;;
3036;SDS011;1528;52.550;13.408;2023-03-01T03:27:53;28.03;;;25.73;;
3036;SDS011;1528;52.550;13.408;2023-03-01T03:30:41;27.10;;;25.00;;
3036;SDS011;1528;52.550;13.408;2023-03-01T03:33:27;24.77;;;22.70;;
3036;SDS011;1528;52.550;13.408;2023-03-01T03:36:16;23.03;;;21.17;;
3036;SDS011;1528;52.550;13.408;2023-03-01T03:39:02;25.13;;;23.23;;
3036;SDS011;1528;52.550;13.408;2023-03-01T03:41:49;23.80;;;21.90;;
3036;SDS011;1528;52.550;13.408;2023-03-01T03:44:35;22.97;;;21.30;;
3036;SDS011;1528;52.550;13.408;2023-03-01T03:47:21;21.60;;;19.60;;
3036;SDS011;1528;52.550;13.408;2023-03-01T03:50:07;22.17;;;20.37;;
3036;SDS011;1528;52.550;13.408;2023-03-01T03:52:55;22.40;;;20.77;;
3036;SDS011;1528;52.550;13.408;2023-03-01T03:55:40;21.13;;;19.63;;
3036;SDS011;1528;52.550;13.408;2023-03-01T03:58:28;23.27;;;21.20;;
3036;SDS011;1528;52.550;13.408;2023-03-01T04:01:13;22.70;;;20.90;;
3036;SDS011;1528;52.550;13.408;2023-03-01T04:03:59;23.83;;;21.70;;
3036;SDS011;1528;52.550;13.408;2023-03-01T04:06:47;24.17;;;22.27;;
3036;SDS011;1528;52.550;13.408;2023-03-01T04:09:34;23.60;;;21.53;;
3036;SDS011;1528;52.550;13.408;2023-03-01T04:12:20;23.40;;;21.20;;
3036;SDS011;1528;52.550;13.408;2023-03-01T04:15:06;22.43;;;20.50;;
3036;SDS011;1528;52.550;13.408;2023-03-01T04:17:57;24.00;;;22.10;;
3036;SDS011;1528;52.550;13.408;2023-03-01T04:20:42;26.37;;;24.20;;
3036;SDS011;1528;52.550;13.408;2023-03-01T04:23:29;24.40;;;22.30;;
3036;SDS011;1528;52.550;13.408;2023-03-01T04:26:16;27.20;;;25.00;;
3036;SDS011;1528;52.550;13.408;2023-03-01T04:29:02;27.00;;;24.67;;
3036;SDS011;1528;52.550;13.408;2023-03-01T04:31:48;28.07;;;25.53;;
3036;SDS011;1528;52.550;13.408;2023-03-01T04:34:33;27.03;;;24.93;;
3036;SDS011;1528;52.550;13.408;2023-03-01T04:37:19;28.17;;;25.97;;
3036;SDS011;1528;52.550;13.408;2023-03-01T04:40:05;27.63;;;25.27;;
3036;SDS011;1528;52.550;13.408;2023-03-01T04:43:01;28.33;;;25.73;;
3036;SDS011;1528;52.550;13.408;2023-03-01T04:45:47;28.53;;;26.27;;
3036;SDS011;1528;52.550;13.408;2023-03-01T04:48:33;28.27;;;26.07;;
3036;SDS011;1528;52.550;13.408;2023-03-01T04:51:19;27.50;;;25.03;;
3036;SDS011;1528;52.550;13.408;2023-03-01T04:54:05;29.00;;;26.80;;
3036;SDS011;1528;52.550;13.408;2023-03-01T04:56:52;28.50;;;25.73;;
3036;SDS011;1528;52.550;13.408;2023-03-01T04:59:39;27.37;;;25.40;;
3036;SDS011;1528;52.550;13.408;2023-03-01T05:02:24;29.07;;;26.80;;
3036;SDS011;1528;52.550;13.408;2023-03-01T05:05:10;27.47;;;24.90;;
3036;SDS011;1528;52.550;13.408;2023-03-01T05:07:56;27.40;;;25.10;;
3036;SDS011;1528;52.550;13.408;2023-03-01T05:10:44;28.17;;;25.87;;
3036;SDS011;1528;52.550;13.408;2023-03-01T05:13:31;26.77;;;24.37;;
3036;SDS011;1528;52.550;13.408;2023-03-01T05:16:18;27.87;;;25.60;;
3036;SDS011;1528;52.550;13.408;2023-03-01T05:19:04;25.33;;;23.37;;
3036;SDS011;1528;52.550;13.408;2023-03-01T05:21:55;27.80;;;25.47;;
3036;SDS011;1528;52.550;13.408;2023-03-01T05:24:47;26.20;;;24.00;;
3036;SDS011;1528;52.550;13.408;2023-03-01T05:27:33;23.93;;;21.70;;
3036;SDS011;1528;52.550;13.408;2023-03-01T05:30:19;26.37;;;24.13;;
3036;SDS011;1528;52.550;13.408;2023-03-01T05:33:07;28.30;;;25.90;;
3036;SDS011;1528;52.550;13.408;2023-03-01T05:35:59;27.43;;;25.23;;
3036;SDS011;1528;52.550;13.408;2023-03-01T05:38:45;28.90;;;26.30;;
3036;SDS011;1528;52.550;13.408;2023-03-01T05:41:31;28.60;;;26.30;;
3036;SDS011;1528;52.550;13.408;2023-03-01T05:44:16;27.47;;;25.27;;
3036;SDS011;1528;52.550;13.408;2023-03-01T05:47:02;27.33;;;24.83;;
3036;SDS011;1528;52.550;13.408;2023-03-01T05:49:49;27.80;;;25.53;;
3036;SDS011;1528;52.550;13.408;2023-03-01T05:52:36;28.00;;;25.70;;
3036;SDS011;1528;52.550;13.408;2023-03-01T05:55:24;29.50;;;26.90;;
3036;SDS011;1528;52.550;13.408;2023-03-01T05:58:10;29.70;;;27.03;;
3036;SDS011;1528;52.550;13.408;2023-03-01T06:00:58;30.70;;;28.10;;
3036;SDS011;1528;52.550;13.408;2023-03-01T06:03:43;29.53;;;27.10;;
3036;SDS011;1528;52.550;13.408;2023-03-01T06:06:32;28.73;;;26.20;;
3036;SDS011;1528;52.550;13.408;2023-03-01T06:09:20;29.00;;;26.57;;
3036;SDS011;1528;52.550;13.408;2023-03-01T06:12:06;27.57;;;25.30;;
3036;SDS011;1528;52.550;13.408;2023-03-01T06:14:52;27.43;;;24.73;;
3036;SDS011;1528;52.550;13.408;2023-03-01T06:17:39;26.60;;;24.30;;
3036;SDS011;1528;52.550;13.408;2023-03-01T06:20:27;27.03;;;25.03;;
3036;SDS011;1528;52.550;13.408;2023-03-01T06:23:15;28.57;;;25.97;;
3036;SDS011;1528;52.550;13.408;2023-03-01T06:26:00;26.67;;;24.33;;
3036;SDS011;1528;52.550;13.408;2023-03-01T06:28:50;27.37;;;25.07;;
3036;SDS011;1528;52.550;13.408;2023-03-01T06:31:35;26.77;;;24.67;;
3036;SDS011;1528;52.550;13.408;2023-03-01T06:34:21;27.83;;;25.23;;
3036;SDS011;1528;52.550;13.408;2023-03-01T06:37:07;29.80;;;27.27;;
3036;SDS011;1528;52.550;13.408;2023-03-01T06:39:54;26.97;;;24.37;;
3036;SDS011;1528;52.550;13.408;2023-03-01T06:42:41;27.63;;;24.90;;
3036;SDS011;1528;52.550;13.408;2023-03-01T06:45:28;28.60;;;26.07;;
3036;SDS011;1528;52.550;13.408;2023-03-01T06:48:14;30.57;;;27.33;;
3036;SDS011;1528;52.550;13.408;2023-03-01T06:51:00;32.03;;;26.07;;
3036;SDS011;1528;52.550;13.408;2023-03-01T06:53:46;30.80;;;27.63;;
3036;SDS011;1528;52.550;13.408;2023-03-01T06:56:35;28.33;;;25.33;;
3036;SDS011;1528;52.550;13.408;2023-03-01T06:59:21;30.37;;;27.20;;
3036;SDS011;1528;52.550;13.408;2023-03-01T07:02:09;29.90;;;27.10;;
3036;SDS011;1528;52.550;13.408;2023-03-01T07:04:54;31.80;;;28.60;;
3036;SDS011;1528;52.550;13.408;2023-03-01T07:07:40;31.97;;;28.33;;
3036;SDS011;1528;52.550;13.408;2023-03-01T07:10:26;36.23;;;26.73;;
3036;SDS011;1528;52.550;13.408;2023-03-01T07:13:13;27.90;;;25.10;;
3036;SDS011;1528;52.550;13.408;2023-03-01T07:15:59;27.67;;;25.17;;
3036;SDS011;1528;52.550;13.408;2023-03-01T07:18:44;29.20;;;26.70;;
3036;SDS011;1528;52.550;13.408;2023-03-01T07:21:30;28.73;;;26.33;;
3036;SDS011;1528;52.550;13.408;2023-03-01T07:24:15;29.90;;;26.90;;
3036;SDS011;1528;52.550;13.408;2023-03-01T07:27:01;31.63;;;28.47;;
3036;SDS011;1528;52.550;13.408;2023-03-01T07:29:50;31.37;;;28.23;;
3036;SDS011;1528;52.550;13.408;2023-03-01T07:32:39;27.60;;;25.20;;
3036;SDS011;1528;52.550;13.408;2023-03-01T07:35:25;29.17;;;27.03;;
3036;SDS011;1528;52.550;13.408;2023-03-01T07:38:11;29.67;;;27.37;;
3036;SDS011;1528;52.550;13.408;2023-03-01T07:40:58;25.83;;;23.53;;
3036;SDS011;1528;52.550;13.408;2023-03-01T07:43:44;28.57;;;26.17;;
3036;SDS011;1528;52.550;13.408;2023-03-01T07:46:31;28.03;;;25.83;;
3036;SDS011;1528;52.550;13.408;2023-03-01T07:49:17;25.73;;;23.73;;
3036;SDS011;1528;52.550;13.408;2023-03-01T07:52:03;24.30;;;22.20;;
3036;SDS011;1528;52.550;13.408;2023-03-01T07:54:49;22.73;;;20.77;;
3036;SDS011;1528;52.550;13.408;2023-03-01T07:57:35;24.17;;;22.27;;
3036;SDS011;1528;52.550;13.408;2023-03-01T08:00:21;20.43;;;18.80;;
3036;SDS011;1528;52.550;13.408;2023-03-01T08:03:08;20.60;;;18.80;;
3036;SDS011;1528;52.550;13.408;2023-03-01T08:05:53;21.10;;;19.03;;
3036;SDS011;1528;52.550;13.408;2023-03-01T08:08:39;18.47;;;17.07;;
3036;SDS011;1528;52.550;13.408;2023-03-01T08:11:25;20.37;;;18.67;;
3036;SDS011;1528;52.550;13.408;2023-03-01T08:14:11;21.17;;;19.37;;
3036;SDS011;1528;52.550;13.408;2023-03-01T08:16:57;20.73;;;19.07;;
3036;SDS011;1528;52.550;13.408;2023-03-01T08:19:44;20.10;;;18.50;;
3036;SDS011;1528;52.550;13.408;2023-03-01T08:22:29;19.67;;;18.07;;
3036;SDS011;1528;52.550;13.408;2023-03-01T08:25:15;22.17;;;20.50;;
3036;SDS011;1528;52.550;13.408;2023-03-01T08:28:01;23.03;;;21.30;;
3036;SDS011;1528;52.550;13.408;2023-03-01T08:30:49;20.43;;;18.83;;
3036;SDS011;1528;52.550;13.408;2023-03-01T08:33:35;18.23;;;16.83;;
3036;SDS011;1528;52.550;13.408;2023-03-01T08:36:23;18.17;;;16.77;;
3036;SDS011;1528;52.550;13.408;2023-03-01T08:39:09;17.10;;;15.47;;
3036;SDS011;1528;52.550;13.408;2023-03-01T08:41:57;17.63;;;16.13;;
3036;SDS011;1528;52.550;13.408;2023-03-01T08:44:42;17.27;;;15.87;;
3036;SDS011;1528;52.550;13.408;2023-03-01T08:47:28;16.93;;;15.43;;
3036;SDS011;1528;52.550;13.408;2023-03-01T08:50:14;16.10;;;15.20;;
3036;SDS011;1528;52.550;13.408;2023-03-01T08:53:01;15.87;;;14.73;;
3036;SDS011;1528;52.550;13.408;2023-03-01T08:55:47;17.10;;;15.77;;
3036;SDS011;1528;52.550;13.408;2023-03-01T08:58:33;17.17;;;16.07;;
3036;SDS011;1528;52.550;13.408;2023-03-01T09:01:18;15.83;;;14.73;;
3036;SDS011;1528;52.550;13.408;2023-03-01T09:04:04;16.07;;;14.87;;
3036;SDS011;1528;52.550;13.408;2023-03-01T09:06:52;15.63;;;14.53;;
3036;SDS011;1528;52.550;13.408;2023-03-01T09:09:41;15.40;;;14.30;;
3036;SDS011;1528;52.550;13.408;2023-03-01T09:12:31;15.73;;;14.83;;
3036;SDS011;1528;52.550;13.408;2023-03-01T09:15:18;15.97;;;14.40;;
3036;SDS011;1528;52.550;13.408;2023-03-01T09:18:09;15.50;;;14.37;;
3036;SDS011;1528;52.550;13.408;2023-03-01T09:21:00;19.47;;;17.97;;
3036;SDS011;1528;52.550;13.408;2023-03-01T09:23:46;16.17;;;14.87;;
3036;SDS011;1528;52.550;13.408;2023-03-01T09:26:34;16.63;;;15.53;;
3036;SDS011;1528;52.550;13.408;2023-03-01T09:29:20;18.53;;;17.30;;
3036;SDS011;1528;52.550;13.408;2023-03-01T09:32:06;17.50;;;16.00;;
3036;SDS011;1528;52.550;13.408;2023-03-01T09:34:52;19.13;;;17.63;;
3036;SDS011;1528;52.550;13.408;2023-03-01T09:37:48;36.07;;;31.30;;
3036;SDS011;1528;52.550;13.408;2023-03-01T09:40:34;22.60;;;20.53;;
3036;SDS011;1528;52.550;13.408;2023-03-01T09:43:23;16.10;;;14.83;;
3036;SDS011;1528;52.550;13.408;2023-03-01T09:46:14;15.30;;;14.37;;
3036;SDS011;1528;52.550;13.408;2023-03-01T09:49:01;14.73;;;13.47;;
3036;SDS011;1528;52.550;13.408;2023-03-01T09:51:54;15.70;;;14.63;;
3036;SDS011;1528;52.550;13.408;2023-03-01T09:54:42;13.60;;;12.80;;
3036;SDS011;1528;52.550;13.408;2023-03-01T09:57:33;15.20;;;14.40;;
3036;SDS011;1528;52.550;13.408;2023-03-01T10:00:32;13.63;;;12.83;;
3036;SDS011;1528;52.550;13.408;2023-03-01T10:03:24;15.13;;;14.13;;
3036;SDS011;1528;52.550;13.408;2023-03-01T10:06:14;12.60;;;11.80;;
3036;SDS011;1528;52.550;13.408;2023-03-01T10:09:04;13.20;;;12.47;;
3036;SDS011;1528;52.550;13.408;2023-03-01T10:11:52;11.53;;;10.87;;
3036;SDS011;1528;52.550;13.408;2023-03-01T10:14:41;12.67;;;11.87;;
3036;SDS011;1528;52.550;13.408;2023-03-01T10:17:36;13.63;;;12.73;;
3036;SDS011;1528;52.550;13.408;2023-03-01T10:20:30;11.83;;;11.23;;
3036;SDS011;1528;52.550;13.408;2023-03-01T10:23:25;12.63;;;11.80;;
3036;SDS011;1528;52.550;13.408;2023-03-01T10:26:17;16.40;;;14.93;;
3036;SDS011;1528;52.550;13.408;2023-03-01T10:29:15;12.97;;;12.07;;
3036;SDS011;1528;52.550;13.408;2023-03-01T10:32:02;12.47;;;11.63;;
3036;SDS011;1528;52.550;13.408;2023-03-01T10:34:51;10.63;;;10.03;;
3036;SDS011;1528;52.550;13.408;2023-03-01T10:37:37;11.47;;;10.87;;
3036;SDS011;1528;52.550;13.408;2023-03-01T10:40:51;13.00;;;11.97;;
3036;SDS011;1528;52.550;13.408;2023-03-01T10:43:43;13.73;;;13.00;;
3036;SDS011;1528;52.550;13.408;2023-03-01T10:46:30;12.53;;;11.93;;
3036;SDS011;1528;52.550;13.408;2023-03-01T10:49:18;11.27;;;10.67;;
3036;SDS011;1528;52.550;13.408;2023-03-01T10:52:16;11.30;;;10.60;;
3036;SDS011;1528;52.550;13.408;2023-03-01T10:55:19;11.23;;;10.63;;
3036;SDS011;1528;52.550;13.408;2023-03-01T10:58:17;11.53;;;11.00;;
3036;SDS011;1528;52.550;13.408;2023-03-01T11:01:05;11.00;;;10.40;;
3036;SDS011;1528;52.550;13.408;2023-03-01T11:04:10;12.20;;;11.40;;
3036;SDS011;1528;52.550;13.408;2023-03-01T11:06:57;10.90;;;10.07;;
3036;SDS011;1528;52.550;13.408;2023-03-01T11:09:46;11.40;;;10.80;;
3036;SDS011;1528;52.550;13.408;2023-03-01T11:12:31;12.73;;;12.00;;
3036;SDS011;1528;52.550;13.408;2023-03-01T11:15:23;10.17;;;9.67;;
3036;SDS011;1528;52.550;13.408;2023-03-01T11:18:20;10.37;;;9.80;;
3036;SDS011;1528;52.550;13.408;2023-03-01T11:21:07;10.60;;;9.90;;
3036;SDS011;1528;52.550;13.408;2023-03-01T11:23:53;11.37;;;10.67;;
3036;SDS011;1528;52.550;13.408;2023-03-01T11:26:41;10.70;;;9.90;;
3036;SDS011;1528;52.550;13.408;2023-03-01T11:29:30;10.17;;;9.47;;
3036;SDS011;1528;52.550;13.408;2023-03-01T11:32:22;14.27;;;13.33;;
3036;SDS011;1528;52.550;13.408;2023-03-01T11:35:13;12.73;;;11.87;;
3036;SDS011;1528;52.550;13.408;2023-03-01T11:38:04;12.23;;;11.37;;
3036;SDS011;1528;52.550;13.408;2023-03-01T11:41:00;12.63;;;12.03;;
3036;SDS011;1528;52.550;13.408;2023-03-01T11:43:54;11.50;;;10.90;;
3036;SDS011;1528;52.550;13.408;2023-03-01T11:46:50;12.13;;;11.43;;
3036;SDS011;1528;52.550;13.408;2023-03-01T11:53:17;10.23;;;9.70;;
3036;SDS011;1528;52.550;13.408;2023-03-01T11:56:17;12.27;;;11.47;;
3036;SDS011;1528;52.550;13.408;2023-03-01T11:59:29;10.50;;;9.90;;
3036;SDS011;1528;52.550;13.408;2023-03-01T12:09:24;12.20;;;11.70;;
3036;SDS011;1528;52.550;13.408;2023-03-01T12:12:25;10.47;;;9.80;;
3036;SDS011;1528;52.550;13.408;2023-03-01T12:15:29;9.10;;;8.60;;
3036;SDS011;1528;52.550;13.408;2023-03-01T12:18:31;11.60;;;11.00;;
3036;SDS011;1528;52.550;13.408;2023-03-01T12:21:39;12.27;;;11.47;;
3036;SDS011;1528;52.550;13.408;2023-03-01T12:24:46;11.60;;;10.90;;
3036;SDS011;1528;52.550;13.408;2023-03-01T12:31:21;9.40;;;8.90;;
3036;SDS011;1528;52.550;13.408;2023-03-01T12:34:43;10.30;;;9.80;;
3036;SDS011;1528;52.550;13.408;2023-03-01T12:37:56;9.23;;;8.63;;
3036;SDS011;1528;52.550;13.408;2023-03-01T12:44:12;9.97;;;9.57;;
3036;SDS011;1528;52.550;13.408;2023-03-01T12:47:14;10.80;;;10.30;;
3036;SDS011;1528;52.550;13.408;2023-03-01T12:50:11;11.90;;;11.30;;
3036;SDS011;1528;52.550;13.408;2023-03-01T12:53:01;12.23;;;11.33;;
3036;SDS011;1528;52.550;13.408;2023-03-01T12:55:47;12.43;;;11.47;;
3036;SDS011;1528;52.550;13.408;2023-03-01T12:58:34;11.40;;;10.70;;
3036;SDS011;1528;52.550;13.408;2023-03-01T13:01:28;9.57;;;9.07;;
3036;SDS011;1528;52.550;13.408;2023-03-01T13:04:26;11.60;;;11.00;;
3036;SDS011;1528;52.550;13.408;2023-03-01T13:07:24;11.33;;;10.73;;
3036;SDS011;1528;52.550;13.408;2023-03-01T13:10:20;11.50;;;11.00;;
3036;SDS011;1528;52.550;13.408;2023-03-01T13:13:12;11.40;;;10.90;;
3036;SDS011;1528;52.550;13.408;2023-03-01T13:19:24;10.07;;;9.47;;
3036;SDS011;1528;52.550;13.408;2023-03-01T13:22:25;10.47;;;9.97;;
3036;SDS011;1528;52.550;13.408;2023-03-01T13:25:16;9.53;;;9.13;;
3036;SDS011;1528;52.550;13.408;2023-03-01T13:34:47;10.17;;;9.70;;
3036;SDS011;1528;52.550;13.408;2023-03-01T13:37:37;8.13;;;7.73;;
3036;SDS011;1528;52.550;13.408;2023-03-01T13:43:43;10.03;;;9.63;;
3036;SDS011;1528;52.550;13.408;2023-03-01T13:46:30;10.23;;;9.80;;
3036;SDS011;1528;52.550;13.408;2023-03-01T13:49:18;9.90;;;9.40;;
3036;SDS011;1528;52.550;13.408;2023-03-01T13:52:13;10.70;;;10.20;;
3036;SDS011;1528;52.550;13.408;2023-03-01T13:55:23;9.90;;;9.30;;
3036;SDS011;1528;52.550;13.408;2023-03-01T13:58:16;10.30;;;9.70;;
3036;SDS011;1528;52.550;13.408;2023-03-01T14:01:18;9.83;;;9.30;;
3036;SDS011;1528;52.550;13.408;2023-03-01T14:04:17;9.27;;;8.93;;
3036;SDS011;1528;52.550;13.408;2023-03-01T14:07:10;12.07;;;11.40;;
3036;SDS011;1528;52.550;13.408;2023-03-01T14:09:58;10.10;;;9.60;;
3036;SDS011;1528;52.550;13.408;2023-03-01T14:12:45;10.37;;;9.97;;
3036;SDS011;1528;52.550;13.408;2023-03-01T14:15:33;10.57;;;10.07;;
3036;SDS011;1528;52.550;13.408;2023-03-01T14:18:24;13.30;;;11.77;;
3036;SDS011;1528;52.550;13.408;2023-03-01T14:21:16;11.10;;;10.60;;
3036;SDS011;1528;52.550;13.408;2023-03-01T14:24:04;12.90;;;12.40;;
3036;SDS011;1528;52.550;13.408;2023-03-01T14:26:50;13.37;;;12.67;;
3036;SDS011;1528;52.550;13.408;2023-03-01T14:29:36;10.67;;;10.17;;
3036;SDS011;1528;52.550;13.408;2023-03-01T14:32:24;11.13;;;10.53;;
3036;SDS011;1528;52.550;13.408;2023-03-01T14:35:19;11.00;;;10.27;;
3036;SDS011;1528;52.550;13.408;2023-03-01T14:38:13;12.00;;;11.40;;
3036;SDS011;1528;52.550;13.408;2023-03-01T14:41:07;9.63;;;9.23;;
3036;SDS011;1528;52.550;13.408;2023-03-01T14:43:57;8.43;;;8.03;;
3036;SDS011;1528;52.550;13.408;2023-03-01T14:46:45;8.67;;;8.20;;
3036;SDS011;1528;52.550;13.408;2023-03-01T14:49:31;11.10;;;10.60;;
3036;SDS011;1528;52.550;13.408;2023-03-01T14:52:20;10.03;;;9.63;;
3036;SDS011;1528;52.550;13.408;2023-03-01T14:55:13;10.13;;;9.60;;
3036;SDS011;1528;52.550;13.408;2023-03-01T14:58:04;11.17;;;10.47;;
3036;SDS011;1528;52.550;13.408;2023-03-01T15:00:52;11.07;;;10.47;;
3036;SDS011;1528;52.550;13.408;2023-03-01T15:03:40;11.03;;;10.30;;
3036;SDS011;1528;52.550;13.408;2023-03-01T15:06:28;12.83;;;12.17;;
3036;SDS011;1528;52.550;13.408;2023-03-01T15:09:14;10.93;;;10.43;;
3036;SDS011;1528;52.550;13.408;2023-03-01T15:12:03;11.33;;;10.63;;
3036;SDS011;1528;52.550;13.408;2023-03-01T15:15:21;11.50;;;10.80;;
3036;SDS011;1528;52.550;13.408;2023-03-01T15:18:26;11.23;;;10.17;;
3036;SDS011;1528;52.550;13.408;2023-03-01T15:21:15;11.77;;;11.27;;
3036;SDS011;1528;52.550;13.408;2023-03-01T15:24:05;14.23;;;13.53;;
3036;SDS011;1528;52.550;13.408;2023-03-01T15:26:56;11.77;;;11.27;;
3036;SDS011;1528;52.550;13.408;2023-03-01T15:29:49;11.50;;;11.10;;
3036;SDS011;1528;52.550;13.408;2023-03-01T15:32:38;11.80;;;11.40;;
3036;SDS011;1528;52.550;13.408;2023-03-01T15:35:33;13.07;;;12.00;;
3036;SDS011;1528;52.550;13.408;2023-03-01T15:38:30;11.00;;;10.30;;
3036;SDS011;1528;52.550;13.408;2023-03-01T15:41:21;11.13;;;10.63;;
3036;SDS011;1528;52.550;13.408;2023-03-01T15:44:16;12.77;;;12.20;;
3036;SDS011;1528;52.550;13.408;2023-03-01T15:47:03;13.13;;;12.40;;
3036;SDS011;1528;52.550;13.408;2023-03-01T15:50:15;13.00;;;12.40;;
3036;SDS011;1528;52.550;13.408;2023-03-01T15:53:03;13.07;;;12.27;;
3036;SDS011;1528;52.550;13.408;2023-03-01T15:55:51;11.80;;;11.20;;
3036;SDS011;1528;52.550;13.408;2023-03-01T15:58:37;12.00;;;11.50;;
3036;SDS011;1528;52.550;13.408;2023-03-01T16:01:22;12.40;;;11.60;;
3036;SDS011;1528;52.550;13.408;2023-03-01T16:04:08;12.43;;;11.83;;
3036;SDS011;1528;52.550;13.408;2023-03-01T16:06:57;12.33;;;11.73;;
3036;SDS011;1528;52.550;13.408;2023-03-01T16:09:43;14.50;;;13.70;;
3036;SDS011;1528;52.550;13.408;2023-03-01T16:12:29;13.07;;;12.37;;
3036;SDS011;1528;52.550;13.408;2023-03-01T16:15:16;12.47;;;11.40;;
3036;SDS011;1528;52.550;13.408;2023-03-01T16:18:03;12.03;;;11.33;;
3036;SDS011;1528;52.550;13.408;2023-03-01T16:20:49;11.60;;;10.83;;
3036;SDS011;1528;52.550;13.408;2023-03-01T16:23:35;12.50;;;12.00;;
3036;SDS011;1528;52.550;13.408;2023-03-01T16:26:21;11.40;;;10.70;;
3036;SDS011;1528;52.550;13.408;2023-03-01T16:29:07;11.27;;;10.70;;
3036;SDS011;1528;52.550;13.408;2023-03-01T16:31:53;10.87;;;10.17;;
3036;SDS011;1528;52.550;13.408;2023-03-01T16:34:38;11.67;;;10.87;;
3036;SDS011;1528;52.550;13.408;2023-03-01T16:37:25;10.63;;;10.03;;
3036;SDS011;1528;52.550;13.408;2023-03-01T16:40:16;11.97;;;11.27;;
3036;SDS011;1528;52.550;13.408;2023-03-01T16:43:04;13.83;;;13.03;;
3036;SDS011;1528;52.550;13.408;2023-03-01T16:45:51;11.47;;;10.73;;
3036;SDS011;1528;52.550;13.408;2023-03-01T16:48:37;12.47;;;11.67;;
3036;SDS011;1528;52.550;13.408;2023-03-01T16:51:23;14.57;;;13.23;;
3036;SDS011;1528;52.550;13.408;2023-03-01T16:54:09;15.03;;;13.43;;
3036;SDS011;1528;52.550;13.408;2023-03-01T16:56:57;13.73;;;12.93;;
3036;SDS011;1528;52.550;13.408;2023-03-01T16:59:42;15.10;;;14.10;;
3036;SDS011;1528;52.550;13.408;2023-03-01T17:02:28;13.90;;;13.03;;
3036;SDS011;1528;52.550;13.408;2023-03-01T17:05:14;14.17;;;13.17;;
3036;SDS011;1528;52.550;13.408;2023-03-01T17:08:01;12.60;;;11.80;;
3036;SDS011;1528;52.550;13.408;2023-03-01T17:10:46;12.73;;;11.97;;
3036;SDS011;1528;52.550;13.408;2023-03-01T17:13:33;12.90;;;12.00;;
3036;SDS011;1528;52.550;13.408;2023-03-01T17:16:19;13.80;;;12.90;;